Time;durP1;ratioP1;P1;durP2;ratioP2;P2;SDS_P1;SDS_P2;PMS_P1;PMS_P2;Temp;Humidity;BMP_temperature;BMP_pressure;BME280_temperature;BME280_humidity;BME280_pressure;Samples;Min_cycle;Max_cycle;Signal;HPM_P1;HPM_P2
2021/07/21 00:00:05;;;;;;;89.25;61.55;;;;;;;;;;5102603;28;20060;-85
2021/07/21 00:02:31;;;;;;;97.95;61.88;;;;;;;;;;5088982;28;20035;-85
2021/07/21 00:04:58;;;;;;;81.85;58.80;;;;;;;;;;5093435;28;20032;-86
2021/07/21 00:07:24;;;;;;;86.57;55.65;;;;;;;;;;5064128;28;20041;-85
2021/07/21 00:09:51;;;;;;;89.13;56.67;;;;;;;;;;5091858;28;20131;-83
2021/07/21 00:15:05;;;;;;;84.13;53.38;;;;;;;;;;5102473;28;20050;-83
2021/07/21 00:17:34;;;;;;;83.28;56.55;;;;;;;;;;5091124;28;20039;-84
2021/07/21 00:20:07;;;;;;;86.15;58.05;;;;;;;;;;5102694;28;20046;-85
2021/07/21 00:22:41;;;;;;;86.22;55.72;;;;;;;;;;5101439;28;20035;-82
2021/07/21 00:25:11;;;;;;;92.07;55.10;;;;;;;;;;5071480;28;20043;-82
2021/07/21 00:27:38;;;;;;;81.20;54.28;;;;;;;;;;5063182;28;20067;-85
2021/07/21 00:30:08;;;;;;;82.15;55.17;;;;;;;;;;5064085;28;20032;-82
2021/07/21 00:32:35;;;;;;;78.80;52.35;;;;;;;;;;5074792;28;20152;-80
2021/07/21 00:35:04;;;;;;;84.30;50.58;;;;;;;;;;5076439;28;20390;-83
2021/07/21 00:37:31;;;;;;;77.65;50.45;;;;;;;;;;5069144;28;20401;-82
2021/07/21 00:39:57;;;;;;;85.60;53.40;;;;;;;;;;5088510;28;20040;-83
2021/07/21 00:42:24;;;;;;;80.60;52.90;;;;;;;;;;5094271;28;20031;-83
2021/07/21 00:44:53;;;;;;;85.43;55.08;;;;;;;;;;5083007;28;20042;-84
2021/07/21 00:47:19;;;;;;;;;;;;;;;;;;5081221;28;20051;-82
2021/07/21 00:49:46;;;;;;;89.18;56.28;;;;;;;;;;5069495;28;19927;-85
2021/07/21 00:52:12;;;;;;;89.25;58.25;;;;;;;;;;5075064;28;20032;-83
2021/07/21 00:54:39;;;;;;;87.40;57.95;;;;;;;;;;5094828;28;20039;-85
2021/07/21 00:57:06;;;;;;;88.07;59.95;;;;;;;;;;5097558;28;20036;-86
2021/07/21 00:59:34;;;;;;;96.47;62.30;;;;;;;;;;5093322;28;20123;-83
2021/07/21 01:02:01;;;;;;;93.88;57.65;;;;;;;;;;5065432;28;20047;-85
2021/07/21 01:04:32;;;;;;;94.40;64.50;;;;;;;;;;5063190;28;20078;-84
2021/07/21 01:07:02;;;;;;;104.63;64.32;;;;;;;;;;5060975;28;20040;-82
2021/07/21 01:09:29;;;;;;;106.18;66.15;;;;;;;;;;5080630;28;20521;-82
2021/07/21 01:12:03;;;;;;;105.78;68.07;;;;;;;;;;5063061;28;20044;-81
2021/07/21 01:14:50;;;;;;;100.28;70.43;;;;;;;;;;5084668;28;20052;-83
2021/07/21 01:17:21;;;;;;;;;;;;;;;;;;5080604;28;20032;-82
2021/07/21 01:20:32;;;;;;;92.03;63.75;;;;;;;;;;5088549;28;19951;-83
2021/07/21 01:23:11;;;;;;;94.60;66.97;;;;;;;;;;5079628;28;20044;-85
2021/07/21 01:25:55;;;;;;;97.70;67.70;;;;;;;;;;5064218;28;20530;-86
2021/07/21 01:28:24;;;;;;;92.65;68.45;;;;;;;;;;5047496;28;20127;-83
2021/07/21 01:30:52;;;;;;;104.65;70.03;;;;;;;;;;5080184;28;20039;-82
2021/07/21 01:33:21;;;;;;;95.22;68.30;;;;;;;;;;5070182;28;20036;-87
2021/07/21 01:36:00;;;;;;;91.28;65.18;;;;;;;;;;5054763;28;20469;-84
2021/07/21 01:38:36;;;;;;;110.60;73.95;;;;;;;;;;5079796;28;20056;-86
2021/07/21 01:41:21;;;;;;;98.15;63.50;;;;;;;;;;5075673;28;20036;-85
2021/07/21 01:43:49;;;;;;;84.03;57.25;;;;;;;;;;5075514;28;20040;-80
2021/07/21 01:46:23;;;;;;;79.63;51.90;;;;;;;;;;5082568;28;20063;-83
2021/07/21 01:48:51;;;;;;;81.03;51.10;;;;;;;;;;5093720;28;20164;-79
2021/07/21 01:51:21;;;;;;;68.20;44.00;;;;;;;;;;5071290;28;20502;-80
2021/07/21 01:53:48;;;;;;;60.72;38.63;;;;;;;;;;5077128;28;20048;-79
2021/07/21 01:56:15;;;;;;;52.50;32.75;;;;;;;;;;5084286;28;20115;-80
2021/07/21 01:58:43;;;;;;;57.67;29.77;;;;;;;;;;5090739;28;20044;-79
2021/07/21 02:01:11;;;;;;;49.83;29.50;;;;;;;;;;5051932;28;20502;-78
2021/07/21 02:03:40;;;;;;;56.92;31.83;;;;;;;;;;5074445;28;20047;-79
2021/07/21 02:06:09;;;;;;;60.63;34.63;;;;;;;;;;5085289;28;20040;-78
2021/07/21 02:08:35;;;;;;;;;;;;;;;;;;5081014;28;20056;-79
2021/07/21 02:11:06;;;;;;;59.28;33.92;;;;;;;;;;5083216;28;20374;-79
2021/07/21 02:13:36;;;;;;;59.75;35.22;;;;;;;;;;5083193;28;20047;-78
2021/07/21 02:16:06;;;;;;;57.75;36.45;;;;;;;;;;5081642;28;20120;-79
2021/07/21 02:18:34;;;;;;;58.05;33.72;;;;;;;;;;5071411;28;20456;-78
2021/07/21 02:21:06;;;;;;;69.85;43.55;;;;;;;;;;5096100;28;20102;-79
2021/07/21 02:23:36;;;;;;;67.22;40.60;;;;;;;;;;5070942;28;20065;-79
2021/07/21 02:26:03;;;;;;;70.45;40.65;;;;;;;;;;5089388;28;20061;-81
2021/07/21 02:28:30;;;;;;;64.40;42.08;;;;;;;;;;5085631;28;20484;-79
2021/07/21 02:31:02;;;;;;;61.65;39.05;;;;;;;;;;5086314;28;20417;-80
2021/07/21 02:33:34;;;;;;;59.10;39.60;;;;;;;;;;5086039;28;20047;-78
2021/07/21 02:36:03;;;;;;;61.08;41.70;;;;;;;;;;5084566;28;20077;-79
2021/07/21 02:38:30;;;;;;;54.28;35.72;;;;;;;;;;5103821;28;20060;-79
2021/07/21 02:40:57;;;;;;;56.03;36.63;;;;;;;;;;5073289;28;20477;-81
2021/07/21 02:43:24;;;;;;;51.42;33.92;;;;;;;;;;5097433;28;20036;-78
2021/07/21 02:45:50;;;;;;;50.50;31.65;;;;;;;;;;5064477;28;20402;-78
2021/07/21 02:48:17;;;;;;;50.10;30.33;;;;;;;;;;5080769;28;20044;-78
2021/07/21 02:50:48;;;;;;;41.63;28.10;;;;;;;;;;5065263;28;20044;-79
2021/07/21 02:53:22;;;;;;;33.15;24.98;;;;;;;;;;5072123;28;20044;-78
2021/07/21 02:55:54;;;;;;;37.40;23.65;;;;;;;;;;5065358;28;20048;-79
2021/07/21 02:58:20;;;;;;;36.45;23.48;;;;;;;;;;5079923;28;20063;-79
2021/07/21 03:00:49;;;;;;;32.83;23.48;;;;;;;;;;5064716;28;20044;-78
2021/07/21 03:03:20;;;;;;;38.13;22.13;;;;;;;;;;5098805;28;20078;-80
2021/07/21 03:05:48;;;;;;;35.75;23.15;;;;;;;;;;5102684;28;20052;-79
2021/07/21 03:08:19;;;;;;;34.28;22.30;;;;;;;;;;5102696;28;20096;-79
2021/07/21 03:10:46;;;;;;;33.60;22.05;;;;;;;;;;5100893;28;20096;-85
2021/07/21 03:13:17;;;;;;;34.00;22.92;;;;;;;;;;5104141;28;20510;-81
2021/07/21 03:15:47;;;;;;;32.17;20.75;;;;;;;;;;5089975;28;20043;-79
2021/07/21 03:18:18;;;;;;;34.80;21.27;;;;;;;;;;5102651;28;20075;-81
2021/07/21 03:20:47;;;;;;;34.75;22.23;;;;;;;;;;5080444;28;20059;-79
2021/07/21 03:23:14;;;;;;;34.92;22.00;;;;;;;;;;5101016;28;20028;-80
2021/07/21 03:25:43;;;;;;;36.53;21.85;;;;;;;;;;5069074;28;20040;-79
2021/07/21 03:28:11;;;;;;;32.45;20.50;;;;;;;;;;5078496;28;20602;-80
2021/07/21 03:30:38;;;;;;;36.05;21.67;;;;;;;;;;5077455;28;20115;-80
2021/07/21 03:33:06;;;;;;;33.90;21.40;;;;;;;;;;5053784;28;20032;-84
2021/07/21 03:35:33;;;;;;;29.48;19.63;;;;;;;;;;5082087;28;20036;-79
2021/07/21 03:38:01;;;;;;;38.55;22.15;;;;;;;;;;5071623;28;20044;-80
2021/07/21 03:40:30;;;;;;;34.00;22.50;;;;;;;;;;5063928;28;20490;-79
2021/07/21 03:42:57;;;;;;;30.65;19.55;;;;;;;;;;5064035;28;20445;-79
2021/07/21 03:45:28;;;;;;;38.92;25.05;;;;;;;;;;5046684;28;20036;-80
2021/07/21 03:47:55;;;;;;;41.78;24.92;;;;;;;;;;5081361;28;20047;-79
2021/07/21 03:50:24;;;;;;;42.42;25.48;;;;;;;;;;5088711;28;20146;-79
2021/07/21 03:52:52;;;;;;;39.58;25.08;;;;;;;;;;5064535;28;20509;-80
2021/07/21 03:55:21;;;;;;;38.03;26.05;;;;;;;;;;5046382;28;20055;-79
2021/07/21 03:57:47;;;;;;;;;;;;;;;;;;5081664;28;20059;-79
2021/07/21 04:00:17;;;;;;;39.42;25.02;;;;;;;;;;5082800;28;19919;-80
2021/07/21 04:02:49;;;;;;;38.30;25.55;;;;;;;;;;5071381;28;20058;-80
2021/07/21 04:05:17;;;;;;;39.40;23.23;;;;;;;;;;5063331;28;20147;-80
2021/07/21 04:07:45;;;;;;;33.72;23.05;;;;;;;;;;5063585;28;21757;-81
2021/07/21 04:10:13;;;;;;;38.60;24.67;;;;;;;;;;5083865;28;20062;-80
2021/07/21 04:12:50;;;;;;;37.83;24.42;;;;;;;;;;5065826;28;20201;-82
2021/07/21 04:15:17;;;;;;;39.67;26.02;;;;;;;;;;5081714;28;20067;-80
2021/07/21 04:17:45;;;;;;;39.38;25.17;;;;;;;;;;5097360;28;20055;-80
2021/07/21 04:20:12;;;;;;;40.60;26.88;;;;;;;;;;5083669;28;20057;-80
2021/07/21 04:22:41;;;;;;;39.38;26.38;;;;;;;;;;5079800;28;20084;-80
2021/07/21 04:25:10;;;;;;;38.13;25.63;;;;;;;;;;5082990;28;20047;-79
2021/07/21 04:27:40;;;;;;;37.72;26.48;;;;;;;;;;5070069;28;20043;-79
2021/07/21 04:30:10;;;;;;;40.97;24.73;;;;;;;;;;5093892;28;20040;-81
2021/07/21 04:32:38;;;;;;;39.00;23.63;;;;;;;;;;5062440;28;20047;-81
2021/07/21 04:35:06;;;;;;;39.75;25.17;;;;;;;;;;5069135;28;20114;-81
2021/07/21 04:37:35;;;;;;;35.35;23.67;;;;;;;;;;5081975;28;20055;-81
2021/07/21 04:40:03;;;;;;;39.40;25.45;;;;;;;;;;5072381;28;20235;-82
2021/07/21 04:42:30;;;;;;;38.75;24.73;;;;;;;;;;5089261;28;20031;-81
2021/07/21 04:44:56;;;;;;;38.85;24.88;;;;;;;;;;5099365;28;20469;-83
2021/07/21 04:47:24;;;;;;;34.08;23.85;;;;;;;;;;5098761;28;20036;-81
2021/07/21 04:49:52;;;;;;;38.45;25.23;;;;;;;;;;5100600;28;20059;-82
2021/07/21 04:52:24;;;;;;;37.97;25.58;;;;;;;;;;5072154;28;20036;-83
2021/07/21 04:54:50;;;;;;;39.88;26.00;;;;;;;;;;5080158;28;20123;-81
2021/07/21 04:57:18;;;;;;;36.80;24.50;;;;;;;;;;5100857;28;20062;-84
2021/07/21 04:59:45;;;;;;;33.70;23.98;;;;;;;;;;5083467;28;20503;-82
2021/07/21 05:02:11;;;;;;;31.00;23.27;;;;;;;;;;5083578;28;20110;-84
2021/07/21 05:04:38;;;;;;;37.08;23.48;;;;;;;;;;5082197;28;20055;-83
2021/07/21 05:07:05;;;;;;;33.50;22.10;;;;;;;;;;5101732;28;21907;-83
2021/07/21 05:09:31;;;;;;;32.45;21.15;;;;;;;;;;5072165;28;20040;-80
2021/07/21 05:11:58;;;;;;;33.53;21.15;;;;;;;;;;5090119;28;20065;-82
2021/07/21 05:14:24;;;;;;;33.53;20.05;;;;;;;;;;5073432;28;20414;-82
2021/07/21 05:16:53;;;;;;;29.70;19.48;;;;;;;;;;5102099;28;20035;-83
2021/07/21 05:19:19;;;;;;;;;;;;;;;;;;5102704;28;20065;-84
2021/07/21 05:21:45;;;;;;;30.00;18.42;;;;;;;;;;5078001;28;20409;-85
2021/07/21 05:24:12;;;;;;;31.05;19.77;;;;;;;;;;5088915;28;20096;-84
2021/07/21 05:26:41;;;;;;;28.67;18.08;;;;;;;;;;5088086;28;20806;-85
2021/07/21 05:29:07;;;;;;;26.58;19.15;;;;;;;;;;5089122;28;20122;-83
2021/07/21 05:31:39;;;;;;;28.00;19.35;;;;;;;;;;5107221;28;20050;-84
2021/07/21 05:34:05;;;;;;;27.40;19.02;;;;;;;;;;5089870;28;20035;-85
2021/07/21 05:36:36;;;;;;;26.25;19.20;;;;;;;;;;5089268;28;20035;-85
2021/07/21 05:39:07;;;;;;;23.98;17.40;;;;;;;;;;5106494;28;20047;-85
2021/07/21 05:41:34;;;;;;;22.92;14.75;;;;;;;;;;5079370;28;20040;-82
2021/07/21 05:44:01;;;;;;;28.30;17.67;;;;;;;;;;5106613;28;20588;-85
2021/07/21 05:46:27;;;;;;;30.95;18.20;;;;;;;;;;5107105;28;20065;-85
2021/07/21 05:48:54;;;;;;;26.50;17.27;;;;;;;;;;5079100;28;20047;-85
2021/07/21 05:51:21;;;;;;;22.55;16.30;;;;;;;;;;5085720;28;20119;-85
2021/07/21 05:53:47;;;;;;;24.65;17.70;;;;;;;;;;5083683;28;20042;-83
2021/07/21 05:56:14;;;;;;;29.55;18.10;;;;;;;;;;5085679;28;20047;-84
2021/07/21 05:58:41;;;;;;;24.55;17.00;;;;;;;;;;5087221;28;20032;-86
2021/07/21 06:01:08;;;;;;;27.38;17.50;;;;;;;;;;5084833;28;20036;-85
2021/07/21 06:03:35;;;;;;;29.65;17.75;;;;;;;;;;5092684;28;20059;-88
2021/07/21 06:06:02;;;;;;;26.33;16.27;;;;;;;;;;5068553;28;20036;-86
2021/07/21 06:08:28;;;;;;;24.80;16.60;;;;;;;;;;5091376;28;20051;-87
2021/07/21 06:10:55;;;;;;;27.88;18.55;;;;;;;;;;5084955;28;20047;-85
2021/07/21 06:13:23;;;;;;;28.27;17.55;;;;;;;;;;5091774;28;20493;-87
2021/07/21 06:15:50;;;;;;;26.23;18.63;;;;;;;;;;5085454;28;20036;-86
2021/07/21 06:18:17;;;;;;;26.90;18.02;;;;;;;;;;5083733;28;20043;-86
2021/07/21 06:20:43;;;;;;;25.23;16.88;;;;;;;;;;5081097;28;20070;-84
2021/07/21 06:23:10;;;;;;;29.30;17.45;;;;;;;;;;5095690;28;20040;-87
2021/07/21 06:25:36;;;;;;;23.85;16.00;;;;;;;;;;5084906;28;20082;-86
2021/07/21 06:28:03;;;;;;;25.30;18.27;;;;;;;;;;5086269;28;20047;-88
2021/07/21 06:30:30;;;;;;;28.10;16.35;;;;;;;;;;5085115;28;20119;-87
2021/07/21 06:32:56;;;;;;;28.15;18.27;;;;;;;;;;5074623;28;20046;-86
2021/07/21 06:35:23;;;;;;;28.95;18.83;;;;;;;;;;5100062;28;20063;-87
2021/07/21 06:37:49;;;;;;;30.83;19.17;;;;;;;;;;5084770;28;20061;-86
2021/07/21 06:40:17;;;;;;;29.65;19.50;;;;;;;;;;5084817;28;20067;-87
2021/07/21 06:42:44;;;;;;;29.55;19.50;;;;;;;;;;5086260;28;20040;-86
2021/07/21 06:45:10;;;;;;;29.35;19.33;;;;;;;;;;5086308;28;20058;-85
2021/07/21 06:47:37;;;;;;;30.38;19.60;;;;;;;;;;5078712;28;20042;-86
2021/07/21 06:50:06;;;;;;;26.80;19.90;;;;;;;;;;5099057;28;20040;-86
2021/07/21 06:52:33;;;;;;;36.03;21.45;;;;;;;;;;5081778;28;20044;-87
2021/07/21 06:55:00;;;;;;;33.42;21.75;;;;;;;;;;5077805;28;20035;-86
2021/07/21 06:57:26;;;;;;;27.92;19.38;;;;;;;;;;5078199;28;20143;-86
2021/07/21 06:59:53;;;;;;;29.83;19.73;;;;;;;;;;5083901;28;20105;-86
2021/07/21 07:02:19;;;;;;;30.88;21.05;;;;;;;;;;5084867;28;20033;-86
2021/07/21 07:04:46;;;;;;;28.73;20.60;;;;;;;;;;5082644;28;20044;-84
2021/07/21 07:07:12;;;;;;;37.47;20.92;;;;;;;;;;5076887;28;20040;-85
2021/07/21 07:09:39;;;;;;;29.98;21.20;;;;;;;;;;5092632;28;20051;-83
2021/07/21 07:12:06;;;;;;;26.17;19.58;;;;;;;;;;5083273;28;20517;-84
2021/07/21 07:14:32;;;;;;;29.55;20.60;;;;;;;;;;5078133;28;20044;-85
2021/07/21 07:16:59;;;;;;;27.35;19.85;;;;;;;;;;5083296;28;20040;-86
2021/07/21 07:19:26;;;;;;;32.38;20.42;;;;;;;;;;5083326;28;20485;-85
2021/07/21 07:21:52;;;;;;;28.63;19.27;;;;;;;;;;5069561;28;20044;-86
2021/07/21 07:24:19;;;;;;;28.52;19.15;;;;;;;;;;5072179;28;20054;-85
2021/07/21 07:26:46;;;;;;;30.02;20.35;;;;;;;;;;5090169;28;20042;-86
2021/07/21 07:29:12;;;;;;;28.80;20.83;;;;;;;;;;5070143;28;20063;-86
2021/07/21 07:31:39;;;;;;;27.27;19.20;;;;;;;;;;5082734;28;20040;-85
2021/07/21 07:34:05;;;;;;;34.40;19.30;;;;;;;;;;5082639;28;20043;-86
2021/07/21 07:36:32;;;;;;;27.63;17.55;;;;;;;;;;5075473;28;20075;-84
2021/07/21 07:38:59;;;;;;;25.92;17.70;;;;;;;;;;5068042;28;20120;-87
2021/07/21 07:41:25;;;;;;;29.02;17.00;;;;;;;;;;5065247;28;20044;-86
2021/07/21 07:43:52;;;;;;;26.08;17.50;;;;;;;;;;5063340;28;20048;-85
2021/07/21 07:46:20;;;;;;;30.48;18.13;;;;;;;;;;5077650;28;20041;-86
2021/07/21 07:48:47;;;;;;;24.58;18.10;;;;;;;;;;5065973;28;20172;-86
2021/07/21 07:51:13;;;;;;;31.65;19.83;;;;;;;;;;5070449;28;20038;-86
2021/07/21 07:53:40;;;;;;;27.83;19.92;;;;;;;;;;5070199;28;21049;-84
2021/07/21 07:56:06;;;;;;;31.42;20.67;;;;;;;;;;5063909;28;20486;-82
2021/07/21 07:58:33;;;;;;;34.92;21.20;;;;;;;;;;5077974;28;20061;-83
2021/07/21 08:01:03;;;;;;;32.10;21.00;;;;;;;;;;5092821;28;20036;-83
2021/07/21 08:03:29;;;;;;;28.80;19.80;;;;;;;;;;5072931;28;20046;-83
2021/07/21 08:05:57;;;;;;;37.15;20.70;;;;;;;;;;5083002;28;20127;-83
2021/07/21 08:08:23;;;;;;;27.75;19.45;;;;;;;;;;5084760;28;20071;-83
2021/07/21 08:10:50;;;;;;;28.23;19.92;;;;;;;;;;5091734;28;20047;-83
2021/07/21 08:13:19;;;;;;;32.80;19.98;;;;;;;;;;5100721;28;20082;-84
2021/07/21 08:15:46;;;;;;;26.65;18.33;;;;;;;;;;5062929;28;20051;-84
2021/07/21 08:18:13;;;;;;;27.95;19.27;;;;;;;;;;5082889;28;20040;-85
2021/07/21 08:20:41;;;;;;;24.77;16.10;;;;;;;;;;5064911;28;20059;-84
2021/07/21 08:23:08;;;;;;;27.17;17.95;;;;;;;;;;5082717;28;20048;-83
2021/07/21 08:25:34;;;;;;;24.80;17.55;;;;;;;;;;5083470;28;20042;-83
2021/07/21 08:28:01;;;;;;;26.38;16.45;;;;;;;;;;5063644;28;20039;-82
2021/07/21 08:30:28;;;;;;;25.05;16.75;;;;;;;;;;5066385;28;20075;-82
2021/07/21 08:32:55;;;;;;;22.60;16.98;;;;;;;;;;5060622;28;20092;-83
2021/07/21 08:35:28;;;;;;;20.20;16.05;;;;;;;;;;5075825;28;20031;-84
2021/07/21 08:37:56;;;;;;;22.13;15.68;;;;;;;;;;5103547;28;20524;-84
2021/07/21 08:40:23;;;;;;;24.88;16.58;;;;;;;;;;5098813;28;20036;-83
2021/07/21 08:42:51;;;;;;;22.73;16.17;;;;;;;;;;5063666;28;20092;-83
2021/07/21 08:45:23;;;;;;;23.33;16.00;;;;;;;;;;5072263;28;20032;-86
2021/07/21 08:47:50;;;;;;;21.88;14.07;;;;;;;;;;5082077;28;20850;-83
2021/07/21 08:50:17;;;;;;;25.27;16.67;;;;;;;;;;5066197;28;20065;-85
2021/07/21 08:52:44;;;;;;;24.33;15.73;;;;;;;;;;5093038;28;20043;-82
2021/07/21 08:55:13;;;;;;;25.13;16.55;;;;;;;;;;5092969;28;20425;-85
2021/07/21 08:57:40;;;;;;;24.02;15.70;;;;;;;;;;5102196;28;20032;-83
2021/07/21 09:00:16;;;;;;;20.08;15.98;;;;;;;;;;5103375;28;20413;-84
2021/07/21 09:02:44;;;;;;;19.85;14.30;;;;;;;;;;5086162;28;20035;-85
2021/07/21 09:05:14;;;;;;;20.80;15.32;;;;;;;;;;5085830;28;20047;-85
2021/07/21 09:07:41;;;;;;;22.10;16.05;;;;;;;;;;5073590;28;20043;-85
2021/07/21 09:10:13;;;;;;;24.67;17.23;;;;;;;;;;5101576;28;20038;-84
2021/07/21 09:12:42;;;;;;;20.40;15.32;;;;;;;;;;5092284;28;20170;-84
2021/07/21 09:15:11;;;;;;;20.73;15.95;;;;;;;;;;5076965;28;20050;-84
2021/07/21 09:17:56;;;;;;;21.40;15.23;;;;;;;;;;5103582;28;20551;-84
2021/07/21 09:20:23;;;;;;;21.92;14.68;;;;;;;;;;5080572;28;20118;-85
2021/07/21 09:22:56;;;;;;;22.98;15.85;;;;;;;;;;5082650;28;20081;-84
2021/07/21 09:25:25;;;;;;;21.10;14.88;;;;;;;;;;5081081;28;20036;-84
2021/07/21 09:27:58;;;;;;;21.45;15.60;;;;;;;;;;5082679;28;20101;-84
2021/07/21 09:30:29;;;;;;;23.08;13.80;;;;;;;;;;5081170;28;20389;-84
2021/07/21 09:33:07;;;;;;;24.38;16.88;;;;;;;;;;5081581;28;20054;-84
2021/07/21 09:35:44;;;;;;;21.55;16.15;;;;;;;;;;5075114;28;20051;-82
2021/07/21 09:38:12;;;;;;;24.77;16.80;;;;;;;;;;5079373;28;20039;-84
2021/07/21 09:40:51;;;;;;;20.48;15.13;;;;;;;;;;5084788;28;20063;-83
2021/07/21 09:43:21;;;;;;;21.10;14.30;;;;;;;;;;5055297;28;20043;-84
2021/07/21 09:45:50;;;;;;;20.63;15.52;;;;;;;;;;5039313;28;20064;-84
2021/07/21 09:48:20;;;;;;;21.55;16.20;;;;;;;;;;5078832;28;20043;-83
2021/07/21 09:50:49;;;;;;;20.00;15.18;;;;;;;;;;5082162;28;20502;-85
2021/07/21 09:53:16;;;;;;;20.83;14.73;;;;;;;;;;5064195;28;20044;-85
2021/07/21 09:55:46;;;;;;;19.80;14.98;;;;;;;;;;5090085;28;20044;-83
2021/07/21 09:58:23;;;;;;;17.95;14.10;;;;;;;;;;5081961;28;20040;-86
2021/07/21 10:00:51;;;;;;;19.02;14.32;;;;;;;;;;5063342;28;20086;-82
2021/07/21 10:03:25;;;;;;;20.77;15.35;;;;;;;;;;5071329;28;20524;-84
2021/07/21 10:06:08;;;;;;;21.63;15.57;;;;;;;;;;5063278;28;20123;-85
2021/07/21 10:08:40;;;;;;;23.33;14.88;;;;;;;;;;5074813;28;20773;-85
2021/07/21 10:11:28;;;;;;;21.67;15.07;;;;;;;;;;5067814;28;20040;-85
2021/07/21 10:14:10;;;;;;;20.17;14.38;;;;;;;;;;5076217;28;20040;-86
2021/07/21 10:16:43;;;;;;;19.73;14.63;;;;;;;;;;5085374;28;20093;-85
2021/07/21 10:19:25;;;;;;;22.13;15.40;;;;;;;;;;5067854;28;20424;-84
2021/07/21 10:22:00;;;;;;;24.58;18.25;;;;;;;;;;5084322;28;20032;-82
2021/07/21 10:24:31;;;;;;;24.38;17.83;;;;;;;;;;5085666;28;20040;-84
2021/07/21 10:26:58;;;;;;;26.60;15.82;;;;;;;;;;5064588;28;20040;-82
2021/07/21 10:29:26;;;;;;;24.30;15.60;;;;;;;;;;5030183;28;20051;-82
2021/07/21 10:31:54;;;;;;;24.85;15.70;;;;;;;;;;5065190;28;20036;-83
2021/07/21 10:34:22;;;;;;;20.38;13.75;;;;;;;;;;5084525;28;20039;-85
2021/07/21 10:36:50;;;;;;;21.77;12.55;;;;;;;;;;5085724;28;20036;-84
2021/07/21 10:39:29;;;;;;;19.08;11.63;;;;;;;;;;5085182;28;20397;-84
2021/07/21 10:42:13;;;;;;;16.73;12.07;;;;;;;;;;5067400;28;20048;-84
2021/07/21 10:44:40;;;;;;;14.57;10.63;;;;;;;;;;5085420;28;20043;-83
2021/07/21 10:47:46;;;;;;;14.57;11.25;;;;;;;;;;5066951;28;20048;-84
2021/07/21 10:50:44;;;;;;;17.30;11.80;;;;;;;;;;5044545;28;20043;-82
2021/07/21 10:53:34;;;;;;;17.63;12.57;;;;;;;;;;5084477;28;20044;-83
2021/07/21 10:59:13;;;;;;;20.90;13.60;;;;;;;;;;5084666;28;20127;-83
2021/07/21 11:01:45;;;;;;;21.17;12.63;;;;;;;;;;5084310;28;20115;-83
2021/07/21 11:04:12;;;;;;;19.42;12.38;;;;;;;;;;5084969;28;20541;-84
2021/07/21 11:06:47;;;;;;;20.58;13.93;;;;;;;;;;5084255;28;20079;-82
2021/07/21 11:09:18;;;;;;;17.05;12.02;;;;;;;;;;5084705;28;20032;-82
2021/07/21 11:11:49;;;;;;;22.88;15.07;;;;;;;;;;5084513;28;20498;-83
2021/07/21 11:14:21;;;;;;;24.45;16.77;;;;;;;;;;5084408;28;20052;-84
2021/07/21 11:16:50;;;;;;;18.77;14.25;;;;;;;;;;5084801;28;20093;-83
2021/07/21 11:19:24;;;;;;;22.65;15.63;;;;;;;;;;5083991;28;20036;-84
2021/07/21 11:21:59;;;;;;;22.13;15.48;;;;;;;;;;5084697;28;20036;-84
2021/07/21 11:24:28;;;;;;;19.55;13.60;;;;;;;;;;5084038;28;20425;-86
2021/07/21 11:26:56;;;;;;;22.83;14.23;;;;;;;;;;5084530;28;20672;-84
2021/07/21 11:29:25;;;;;;;18.13;14.10;;;;;;;;;;5085108;28;20044;-85
2021/07/21 11:31:54;;;;;;;21.13;15.05;;;;;;;;;;5084293;28;20456;-84
2021/07/21 11:34:33;;;;;;;21.45;13.48;;;;;;;;;;5083734;28;20448;-83
2021/07/21 11:37:07;;;;;;;21.48;14.05;;;;;;;;;;5065954;28;20497;-82
2021/07/21 11:39:45;;;;;;;25.85;15.23;;;;;;;;;;5065982;28;20067;-82
2021/07/21 11:42:25;;;;;;;23.08;14.57;;;;;;;;;;5083785;28;20047;-84
2021/07/21 11:45:04;;;;;;;21.35;13.82;;;;;;;;;;5065760;28;20043;-83
2021/07/21 11:47:41;;;;;;;17.63;13.00;;;;;;;;;;5083294;28;20044;-84
2021/07/21 11:50:20;;;;;;;21.10;13.70;;;;;;;;;;5082648;28;20036;-84
2021/07/21 11:53:11;;;;;;;17.17;12.07;;;;;;;;;;5072802;28;20040;-83
2021/07/21 11:55:40;;;;;;;16.85;11.98;;;;;;;;;;5066028;28;20505;-84
2021/07/21 11:58:12;;;;;;;16.45;11.57;;;;;;;;;;5063553;28;20040;-83
2021/07/21 12:00:38;;;;;;;18.67;12.07;;;;;;;;;;5083461;28;20115;-85
2021/07/21 12:03:09;;;;;;;16.20;11.80;;;;;;;;;;5082542;28;20047;-81
2021/07/21 12:05:35;;;;;;;17.70;12.13;;;;;;;;;;5055648;28;20085;-83
2021/07/21 12:08:04;;;;;;;14.10;11.68;;;;;;;;;;5102655;28;20481;-81
2021/07/21 12:10:33;;;;;;;14.38;11.32;;;;;;;;;;5090037;28;20066;-84
2021/07/21 12:13:08;;;;;;;16.20;11.45;;;;;;;;;;5080606;28;20576;-83
2021/07/21 12:15:34;;;;;;;16.80;11.57;;;;;;;;;;5065911;28;20860;-84
2021/07/21 12:18:08;;;;;;;15.85;11.73;;;;;;;;;;5086769;28;20045;-84
2021/07/21 12:20:35;;;;;;;14.98;10.88;;;;;;;;;;5089647;28;20490;-83
2021/07/21 12:23:01;;;;;;;19.48;12.70;;;;;;;;;;5072146;28;20131;-84
2021/07/21 12:25:31;;;;;;;19.35;12.52;;;;;;;;;;5085401;28;20071;-86
2021/07/21 12:27:58;;;;;;;15.70;12.13;;;;;;;;;;5081575;28;20676;-84
2021/07/21 12:30:26;;;;;;;19.98;13.43;;;;;;;;;;5095265;28;20044;-83
2021/07/21 12:32:54;;;;;;;17.70;13.20;;;;;;;;;;5095539;28;20040;-84
2021/07/21 12:35:27;;;;;;;19.48;15.18;;;;;;;;;;5083224;28;20036;-84
2021/07/21 12:37:55;;;;;;;20.50;14.07;;;;;;;;;;5081336;28;20058;-85
2021/07/21 12:40:28;;;;;;;21.23;15.70;;;;;;;;;;5099386;28;20566;-84
2021/07/21 12:42:57;;;;;;;23.23;15.77;;;;;;;;;;5096329;28;20163;-83
2021/07/21 12:45:26;;;;;;;16.00;13.07;;;;;;;;;;5081466;28;20047;-84
2021/07/21 12:47:55;;;;;;;20.35;14.05;;;;;;;;;;5063646;28;20052;-84
2021/07/21 12:50:40;;;;;;;18.42;12.68;;;;;;;;;;5070724;28;20425;-84
2021/07/21 12:53:21;;;;;;;18.88;13.73;;;;;;;;;;5100448;28;20545;-84
2021/07/21 12:55:53;;;;;;;;;;;;;;;;;;5099825;28;20040;-83
2021/07/21 12:58:22;;;;;;;17.92;12.20;;;;;;;;;;5082167;28;19973;-84
2021/07/21 13:00:57;;;;;;;18.63;12.95;;;;;;;;;;5080320;28;20035;-83
2021/07/21 13:03:25;;;;;;;17.75;12.73;;;;;;;;;;5080300;28;20599;-83
2021/07/21 13:05:56;;;;;;;19.80;13.77;;;;;;;;;;5082846;28;20090;-83
2021/07/21 13:08:32;;;;;;;16.92;11.57;;;;;;;;;;5100387;28;20050;-84
2021/07/21 13:11:10;;;;;;;19.63;13.15;;;;;;;;;;5083921;28;20036;-84
2021/07/21 13:13:39;;;;;;;18.83;13.82;;;;;;;;;;5102115;28;20043;-83
2021/07/21 13:16:06;;;;;;;;;;;;;;;;;;5086984;28;20474;-84
2021/07/21 13:18:44;;;;;;;;;;;;;;;;;;5071242;28;19916;-83
2021/07/21 13:21:40;;;;;;;19.23;13.10;;;;;;;;;;5069987;28;20458;-83
2021/07/21 13:24:06;;;;;;;18.90;13.27;;;;;;;;;;5045746;28;20098;-83
2021/07/21 13:26:38;;;;;;;19.15;13.68;;;;;;;;;;5076503;28;20132;-84
2021/07/21 13:29:15;;;;;;;22.02;13.32;;;;;;;;;;5059408;28;20055;-83
2021/07/21 13:31:47;;;;;;;16.95;11.25;;;;;;;;;;5062908;28;20109;-84
2021/07/21 13:34:21;;;;;;;15.70;11.18;;;;;;;;;;5059519;28;20036;-85
2021/07/21 13:36:52;;;;;;;16.45;11.57;;;;;;;;;;5062349;28;20662;-85
2021/07/21 13:39:22;;;;;;;17.70;11.30;;;;;;;;;;5061605;28;20036;-83
2021/07/21 13:41:57;;;;;;;16.45;10.32;;;;;;;;;;5102036;28;20123;-83
2021/07/21 13:44:24;;;;;;;;;;;;;;;;;;5106251;28;20085;-91
2021/07/21 13:46:53;;;;;;;18.23;11.73;;;;;;;;;;5089810;28;20573;-84
2021/07/21 13:49:29;;;;;;;;;;;;;;;;;;5065686;28;20505;-87
2021/07/21 13:52:02;;;;;;;18.60;11.35;;;;;;;;;;5082418;28;19947;-85
2021/07/21 13:54:32;;;;;;;18.77;12.48;;;;;;;;;;5066920;28;20044;-83
2021/07/21 13:57:10;;;;;;;17.83;13.23;;;;;;;;;;5083353;28;20696;-82
2021/07/21 13:59:39;;;;;;;28.08;15.57;;;;;;;;;;5084317;28;20093;-85
2021/07/21 14:02:09;;;;;;;26.75;17.30;;;;;;;;;;5065493;28;20044;-84
2021/07/21 14:04:36;;;;;;;26.30;18.33;;;;;;;;;;5085011;28;20515;-84
2021/07/21 14:07:03;;;;;;;30.05;19.27;;;;;;;;;;5080615;28;20042;-86
2021/07/21 14:09:30;;;;;;;25.90;18.58;;;;;;;;;;5073272;28;20102;-82
2021/07/21 14:11:59;;;;;;;32.03;21.42;;;;;;;;;;5069737;28;20106;-85
2021/07/21 14:14:26;;;;;;;27.77;19.17;;;;;;;;;;5072185;28;20055;-84
2021/07/21 14:16:54;;;;;;;29.02;20.17;;;;;;;;;;5093623;28;20039;-83
2021/07/21 14:19:21;;;;;;;30.38;20.50;;;;;;;;;;5090534;28;20032;-82
2021/07/21 14:21:53;;;;;;;31.35;22.40;;;;;;;;;;5090214;28;20040;-83
2021/07/21 14:24:21;;;;;;;30.67;22.30;;;;;;;;;;5089928;28;20067;-83
2021/07/21 14:26:48;;;;;;;32.17;20.23;;;;;;;;;;5089907;28;20459;-82
2021/07/21 14:29:14;;;;;;;29.77;20.65;;;;;;;;;;5091003;28;20408;-82
2021/07/21 14:31:41;;;;;;;33.90;22.60;;;;;;;;;;5089335;28;20621;-84
2021/07/21 14:34:08;;;;;;;32.35;22.48;;;;;;;;;;5082003;28;20583;-87
2021/07/21 14:36:35;;;;;;;35.60;22.17;;;;;;;;;;5088693;28;20076;-82
2021/07/21 14:39:03;;;;;;;31.42;21.88;;;;;;;;;;5090988;28;20139;-85
2021/07/21 14:41:30;;;;;;;30.70;23.15;;;;;;;;;;5087829;28;20027;-84